Broadacres, New York
Current Conditions -  °F | °C
As of 3:53 PM on Tuesday 27 Jan 2015 (Local Time) from KBGM Reporting Station
Scattered Clouds Scattered Clouds  
Wind Chill: -3°   Ceiling: Unl
Heat Index: 12°   Visibility: 10mi
Dew Point:   Wind: 13mph
Humidity: 67%   Direction: 330°NNW
Pressure: 29.78"   Gusts: NA
Location:  42.1759°N, 75.9402°W
Report Text: KBGM 272053Z 33011KT 10SM FEW036 SCT120 M11/M16 A2978 RMK AO2 SLP116 T11111161 53011
Loading
Personal Weather Stations






























Interactive Weather Map New forecast layout! Learn more

10-Day Weather Forecast

Advertisements
Track Severe Weather on mobile